Terminal Aerodrome Forecast
Issued by NWS

Home | Current Version | Previous Version | Text Only | Print | Product List | Glossary On
Versions: 1 2 3 4 5 6 7 8 9 10 11 12 13 14 15 16
000
FTUS45 KPIH 022320
TAFSUN
TAF
KSUN 022320Z 0300/0324 14008KT P6SM VCTS SCT050 BKN100CB
     FM030100 31007KT P6SM SCT100
     FM031700 16007KT P6SM VCTS SCT090CB=

USA.gov is the U.S. government's official web portal to all federal, state and local government web resources and services.